Time;durP1;ratioP1;P1;durP2;ratioP2;P2;SDS_P1;SDS_P2;PMS_P1;PMS_P2;Temp;Humidity;BMP_temperature;BMP_pressure;BME280_temperature;BME280_humidity;BME280_pressure;Samples;Min_cycle;Max_cycle;Signal;HPM_P1;HPM_P2
2022/07/29 00:07:04;;;;;;;7.03;1.83;;;;;;;17.85;66.48;101197.83;5068583;57;1138914;-69
2022/07/29 00:19:14;;;;;;;8.47;2.67;;;;;;;17.74;68.00;101185.48;5080605;57;1138983;-64
2022/07/29 00:24:20;;;;;;;5.65;2.00;;;;;;;17.62;68.57;101189.31;5079974;57;1138930;-62
2022/07/29 00:29:25;;;;;;;6.80;2.10;;;;;;;17.49;69.35;101200.36;5077956;57;1138983;-62
2022/07/29 00:39:55;;;;;;;7.83;2.10;;;;;;;17.42;69.42;101210.44;5077948;57;1136837;-63
2022/07/29 00:45:01;;;;;;;10.90;2.17;;;;;;;17.50;69.46;101199.86;5080283;57;1136894;-64
2022/07/29 00:50:08;;;;;;;6.40;2.03;;;;;;;17.50;69.61;101201.20;5080286;57;1139251;-63
2022/07/29 00:55:17;;;;;;;4.80;2.10;;;;;;;17.46;69.52;101201.98;5012665;58;1136979;-63
2022/07/29 01:00:26;;;;;;;7.70;2.10;;;;;;;17.33;71.00;101200.13;5044911;58;1137060;-63
2022/07/29 01:05:33;;;;;;;6.87;2.20;;;;;;;17.25;70.68;101198.70;5225947;56;1137061;-63
2022/07/29 01:10:40;;;;;;;5.20;2.27;;;;;;;17.20;71.24;101188.43;5225965;56;1136929;-63
2022/07/29 01:15:53;;;;;;;4.03;2.27;;;;;;;17.15;71.56;101191.18;5225808;56;1137358;-62
2022/07/29 01:21:33;;;;;;;;;;;;;;;17.08;71.91;101192.27;5306196;55;1136800;-63
2022/07/29 01:26:58;;;;;;;9.03;2.47;;;;;;;16.99;72.12;101185.10;5311015;55;976351;-62
2022/07/29 01:32:15;;;;;;;10.13;2.43;;;;;;;16.92;72.61;101183.16;5304010;55;1136860;-63
2022/07/29 01:37:45;;;;;;;11.23;2.40;;;;;;;16.80;73.32;101184.64;5290463;55;1141306;-64
2022/07/29 01:42:55;;;;;;;10.93;2.50;;;;;;;16.78;73.24;101183.97;5219656;56;1141249;-62
2022/07/29 01:48:14;;;;;;;11.00;2.20;;;;;;;16.79;74.18;101178.12;5219289;56;1141089;-63
2022/07/29 01:53:31;;;;;;;3.57;1.77;;;;;;;16.75;74.58;101169.55;5219246;56;1141073;-62
2022/07/29 01:58:40;;;;;;;6.43;1.80;;;;;;;16.71;74.42;101176.65;5230229;56;1139044;-65
2022/07/29 02:03:48;;;;;;;14.00;2.40;;;;;;;16.69;74.96;101180.80;5233693;56;1138898;-66
2022/07/29 02:08:56;;;;;;;5.37;2.25;;;;;;;16.64;75.08;101170.20;5219208;56;1141030;-64
2022/07/29 02:14:03;;;;;;;6.07;2.10;;;;;;;16.58;75.33;101167.56;5219318;56;1139126;-64
2022/07/29 02:19:10;;;;;;;8.23;2.07;;;;;;;16.47;75.54;101170.39;5219099;56;1138984;-64
2022/07/29 02:24:18;;;;;;;12.37;2.50;;;;;;;16.43;75.82;101169.83;5214516;56;1139040;-65
2022/07/29 02:29:27;;;;;;;8.98;2.62;;;;;;;16.36;76.12;101173.18;5195903;56;1141084;-66
2022/07/29 02:34:36;;;;;;;7.47;2.30;;;;;;;16.30;76.29;101177.77;5215487;56;1138997;-65
2022/07/29 02:39:44;;;;;;;10.28;2.87;;;;;;;16.35;76.99;101177.67;5219150;56;1139110;-66
2022/07/29 02:44:51;;;;;;;9.90;3.10;;;;;;;16.43;76.54;101172.98;5219120;56;1141028;-66
2022/07/29 02:50:16;;;;;;;7.50;2.37;;;;;;;16.45;76.85;101165.68;5158524;56;1138900;-66
2022/07/29 02:55:48;;;;;;;7.37;2.55;;;;;;;16.40;76.53;101159.91;5071969;57;1137245;-64
2022/07/29 03:00:56;;;;;;;9.50;2.37;;;;;;;16.37;76.74;101166.37;5073768;57;1136848;-64
2022/07/29 03:06:04;;;;;;;8.67;2.67;;;;;;;16.31;77.24;101155.43;5068206;58;1137222;-65
2022/07/29 03:11:11;;;;;;;15.60;2.63;;;;;;;16.22;77.91;101144.23;5068468;58;1136997;-66
2022/07/29 03:16:19;;;;;;;9.37;3.77;;;;;;;16.14;77.94;101148.95;5160141;56;1139024;-65
2022/07/29 03:21:25;;;;;;;13.73;2.50;;;;;;;16.09;78.45;101160.03;5206498;56;1136788;-66
2022/07/29 03:26:31;;;;;;;7.97;2.83;;;;;;;16.04;79.20;101136.92;5206633;56;1138919;-65
2022/07/29 03:31:38;;;;;;;8.43;3.07;;;;;;;15.98;79.67;101150.83;5153206;56;1134862;-65
2022/07/29 03:36:44;;;;;;;10.80;2.63;;;;;;;15.98;79.78;101151.33;5141340;57;1134831;-64
2022/07/29 03:41:54;;;;;;;9.00;2.87;;;;;;;15.96;80.49;101155.95;5141358;57;1141272;-66
2022/07/29 03:47:03;;;;;;;13.07;3.30;;;;;;;15.93;80.61;101157.55;5111384;57;1139196;-65
2022/07/29 03:52:09;;;;;;;14.33;2.77;;;;;;;15.97;80.60;101157.64;4966096;58;1141036;-66
2022/07/29 03:57:17;;;;;;;7.97;3.10;;;;;;;15.96;81.39;101153.28;4965901;59;1141065;-64
2022/07/29 04:02:25;;;;;;;15.90;3.77;;;;;;;15.92;80.96;101152.70;5100747;57;1139118;-64
2022/07/29 04:07:31;;;;;;;13.77;2.63;;;;;;;15.93;82.00;101156.22;5141023;57;1141167;-65
2022/07/29 04:12:37;;;;;;;17.27;3.17;;;;;;;15.95;81.56;101151.10;5161832;56;1141276;-64
2022/07/29 04:17:43;;;;;;;12.93;3.87;;;;;;;15.98;81.73;101149.99;5191083;56;1140993;-64
2022/07/29 04:22:48;;;;;;;10.77;3.90;;;;;;;15.98;81.83;101152.17;5204208;56;1141054;-65
2022/07/29 04:28:00;;;;;;;12.87;2.57;;;;;;;16.01;82.13;101156.39;5207080;56;1140458;-64
2022/07/29 04:33:07;;;;;;;12.93;3.37;;;;;;;16.08;83.12;101152.17;5184377;56;1141423;-65
2022/07/29 04:38:13;;;;;;;5.53;2.23;;;;;;;16.12;82.96;101153.59;5206801;56;1141599;-65
2022/07/29 04:43:19;;;;;;;13.67;3.60;;;;;;;16.22;83.32;101167.77;5183380;56;1138996;-64
2022/07/29 04:48:25;;;;;;;23.80;3.07;;;;;;;16.32;83.33;101164.63;5204018;56;1141362;-64
2022/07/29 04:53:32;;;;;;;15.57;3.17;;;;;;;16.41;83.45;101169.12;5202235;56;1141118;-65
2022/07/29 04:58:38;;;;;;;9.93;2.53;;;;;;;16.41;83.45;101169.12;5120739;56;1141104;-66
2022/07/29 05:03:44;;;;;;;10.97;2.87;;;;;;;16.47;83.18;101167.23;5158869;56;1139026;-65
2022/07/29 05:08:50;;;;;;;11.87;2.40;;;;;;;16.57;83.62;101173.89;5186737;56;1140914;-65
2022/07/29 05:13:56;;;;;;;6.80;2.53;;;;;;;16.69;83.40;101171.94;5163689;55;1141257;-64
2022/07/29 05:19:02;;;;;;;6.70;2.73;;;;;;;16.81;83.11;101164.11;5021077;57;1138759;-66
2022/07/29 05:24:09;;;;;;;7.93;2.40;;;;;;;16.97;82.96;101163.02;4985188;57;1139002;-65
2022/07/29 05:29:15;;;;;;;5.57;2.47;;;;;;;17.16;82.75;101162.97;4990490;58;1138930;-64
2022/07/29 05:34:21;;;;;;;5.40;2.20;;;;;;;17.39;82.41;101157.27;5110220;57;1139025;-65
2022/07/29 05:39:27;;;;;;;10.53;3.43;;;;;;;17.57;81.56;101160.33;5079650;57;1139161;-64
2022/07/29 05:44:37;;;;;;;13.33;2.40;;;;;;;17.76;81.13;101148.72;5043714;57;1140949;-71
2022/07/29 05:49:43;;;;;;;13.73;2.30;;;;;;;17.92;80.67;101148.89;5035149;58;1141035;-69
2022/07/29 05:54:49;;;;;;;8.37;2.47;;;;;;;18.16;80.19;101144.30;4993858;58;1141123;-66
2022/07/29 05:59:56;;;;;;;6.47;2.33;;;;;;;18.39;79.56;101154.04;4993889;58;1139090;-65
2022/07/29 06:05:02;;;;;;;11.68;2.30;;;;;;;18.66;78.76;101154.95;5080717;57;1139010;-66
2022/07/29 06:10:09;;;;;;;3.02;2.25;;;;;;;18.84;77.91;101156.60;5007417;57;1141014;-65
2022/07/29 06:15:15;;;;;;;7.87;1.92;;;;;;;18.97;76.34;101155.68;5020387;58;1138991;-65
2022/07/29 06:20:21;;;;;;;5.67;2.22;;;;;;;19.20;76.85;101154.66;5150130;57;1139091;-64
2022/07/29 06:25:34;;;;;;;7.08;2.50;;;;;;;19.43;74.99;101154.92;5152995;57;1139020;-66
2022/07/29 06:30:39;;;;;;;7.87;2.40;;;;;;;19.62;73.34;101152.52;5127509;57;1138986;-65
2022/07/29 06:35:47;;;;;;;11.90;2.20;;;;;;;19.84;73.19;101153.78;5201057;56;1136905;-66
2022/07/29 06:41:12;;;;;;;10.88;2.62;;;;;;;20.05;73.09;101150.62;5203022;56;1139278;-65
2022/07/29 06:46:17;;;;;;;4.90;2.40;;;;;;;20.18;72.05;101157.69;5109901;57;1138991;-64
2022/07/29 06:51:24;;;;;;;3.22;2.10;;;;;;;20.29;71.43;101146.64;5136776;57;1137053;-64
2022/07/29 06:56:31;;;;;;;29.05;3.20;;;;;;;20.43;70.99;101148.70;5136417;57;1137050;-66
2022/07/29 07:01:40;;;;;;;4.53;1.87;;;;;;;20.71;71.05;101144.66;5125998;57;1139162;-66
2022/07/29 07:06:46;;;;;;;6.75;1.70;;;;;;;20.96;67.80;101138.72;5241100;56;1137008;-65
2022/07/29 07:11:51;;;;;;;15.03;1.95;;;;;;;21.13;67.87;101143.56;5241160;56;1137044;-65
2022/07/29 07:17:00;;;;;;;7.50;1.57;;;;;;;21.33;67.16;101146.73;5217590;56;1139458;-64
2022/07/29 07:22:06;;;;;;;13.70;1.75;;;;;;;21.63;65.92;101145.94;5197614;56;1137275;-66
2022/07/29 07:27:12;;;;;;;10.08;2.15;;;;;;;21.94;65.62;101142.41;5200636;57;1139240;-66
2022/07/29 07:32:18;;;;;;;20.93;2.30;;;;;;;22.22;64.18;101132.81;5165455;57;1138996;-65
2022/07/29 07:37:24;;;;;;;5.12;2.72;;;;;;;22.50;60.60;101135.78;5205685;56;1139022;-65
2022/07/29 07:42:30;;;;;;;2.98;1.40;;;;;;;22.78;60.37;101136.89;5206098;56;1135054;-67
2022/07/29 07:47:37;;;;;;;4.55;1.80;;;;;;;22.98;58.13;101125.06;5148178;56;1134787;-64
2022/07/29 07:52:57;;;;;;;9.58;2.17;;;;;;;23.15;58.55;101115.77;5176119;56;1139220;-65
2022/07/29 07:58:01;;;;;;;5.90;1.65;;;;;;;23.34;56.75;101121.63;5157579;56;1139229;-65
2022/07/29 08:03:08;;;;;;;3.75;1.47;;;;;;;23.58;57.13;101119.98;5196746;56;1139237;-64
2022/07/29 08:08:13;;;;;;;5.72;1.62;;;;;;;23.73;54.54;101120.80;5216195;55;1139407;-67
2022/07/29 08:13:22;;;;;;;2.50;1.45;;;;;;;23.70;54.35;101124.38;5261847;56;1139420;-65
2022/07/29 08:18:32;;;;;;;10.30;1.50;;;;;;;23.76;54.25;101127.69;5229658;56;1138823;-62
2022/07/29 08:23:45;;;;;;;5.53;1.92;;;;;;;23.64;52.90;101131.91;5231258;55;1141314;-65
2022/07/29 08:28:50;;;;;;;6.28;1.37;;;;;;;23.52;51.04;101134.27;5107832;56;1139144;-63
2022/07/29 08:33:59;;;;;;;2.25;1.22;;;;;;;23.23;51.56;101139.11;5239276;56;1138832;-63
2022/07/29 08:39:04;;;;;;;3.00;1.30;;;;;;;23.00;51.42;101145.95;5241084;56;1139168;-63
2022/07/29 08:44:11;;;;;;;5.35;1.45;;;;;;;22.79;52.00;101150.70;5241069;56;1138977;-63
2022/07/29 08:49:18;;;;;;;6.00;1.85;;;;;;;22.66;52.59;101149.12;5227457;56;1138980;-63
2022/07/29 08:54:24;;;;;;;2.33;1.22;;;;;;;22.61;53.39;101151.52;5225116;56;1138982;-62
2022/07/29 08:59:33;;;;;;;3.70;1.60;;;;;;;22.57;54.03;101144.83;5218281;56;1139166;-64
2022/07/29 09:04:40;;;;;;;3.52;1.45;;;;;;;22.66;53.99;101149.63;5253118;55;1139162;-65
2022/07/29 09:09:46;;;;;;;1.72;1.25;;;;;;;22.71;53.95;101155.32;5089980;57;1139250;-62
2022/07/29 09:14:53;;;;;;;6.37;1.50;;;;;;;22.73;53.17;101156.82;5241089;56;1139203;-64
2022/07/29 09:20:12;;;;;;;5.78;1.50;;;;;;;22.75;53.31;101156.13;5210069;56;1139314;-63
2022/07/29 09:25:39;;;;;;;7.08;1.50;;;;;;;22.84;53.06;101152.86;5180479;56;1138851;-62
2022/07/29 09:30:54;;;;;;;3.05;1.35;;;;;;;22.93;52.88;101148.21;5082864;57;1139312;-62
2022/07/29 09:36:05;;;;;;;11.85;1.45;;;;;;;22.99;52.06;101144.28;5151409;56;1138948;-64
2022/07/29 09:41:11;;;;;;;11.30;1.20;;;;;;;23.03;51.77;101146.11;5151687;56;1141165;-64
2022/07/29 09:46:17;;;;;;;6.62;1.42;;;;;;;23.00;50.97;101150.52;5070211;56;1140936;-63
2022/07/29 09:51:23;;;;;;;3.27;1.20;;;;;;;23.00;51.16;101143.27;4981395;57;1139023;-64
2022/07/29 09:56:42;;;;;;;8.68;1.35;;;;;;;23.02;49.92;101143.08;5151472;56;1136779;-64
2022/07/29 10:01:52;;;;;;;2.58;1.32;;;;;;;23.01;49.93;101140.89;5151453;56;1136907;-64
2022/07/29 10:07:01;;;;;;;5.35;1.30;;;;;;;23.02;50.07;101131.78;5123510;57;1136940;-64
2022/07/29 10:12:16;;;;;;;10.72;2.20;;;;;;;23.05;49.50;101134.63;5140876;57;1136974;-64
2022/07/29 10:17:23;;;;;;;7.10;1.45;;;;;;;23.01;47.33;101134.15;5141733;56;1139006;-65
2022/07/29 10:22:29;;;;;;;3.95;1.30;;;;;;;23.05;48.53;101131.92;5074593;57;1137008;-65
2022/07/29 10:27:36;;;;;;;10.10;2.00;;;;;;;23.08;47.76;101123.43;5162290;56;1136837;-62
2022/07/29 10:33:22;;;;;;;6.08;1.30;;;;;;;23.10;47.52;101122.73;5065830;58;1139020;-64
2022/07/29 10:39:01;;;;;;;9.00;1.50;;;;;;;23.18;47.87;101112.38;4994058;57;1139292;-63
2022/07/29 10:44:11;;;;;;;8.13;1.40;;;;;;;23.37;47.07;101115.86;5029603;57;1139361;-63
2022/07/29 10:49:25;;;;;;;5.87;1.52;;;;;;;23.66;46.96;101119.89;5054402;57;1139316;-63
2022/07/29 10:54:49;;;;;;;7.25;1.87;;;;;;;24.03;47.39;101116.13;5014362;57;1139020;-66
2022/07/29 11:00:11;;;;;;;7.20;1.30;;;;;;;24.33;44.98;101113.33;5099190;56;1138968;-64
2022/07/29 11:05:20;;;;;;;12.05;1.60;;;;;;;24.40;46.37;101108.83;5082373;57;1139191;-65
2022/07/29 11:10:25;;;;;;;5.67;1.57;;;;;;;24.63;45.35;101104.53;5074812;58;1141109;-65
2022/07/29 11:15:54;;;;;;;6.50;1.90;;;;;;;24.79;42.30;101102.36;5075123;58;1139328;-64
2022/07/29 11:21:00;;;;;;;2.50;1.17;;;;;;;24.93;45.69;101092.97;5074497;57;1139357;-63
2022/07/29 11:26:30;;;;;;;3.45;1.47;;;;;;;25.05;41.28;101092.80;5087543;57;1139319;-64
2022/07/29 11:31:45;;;;;;;12.30;1.90;;;;;;;25.08;41.73;101093.20;5111395;57;1139151;-64
2022/07/29 11:37:14;;;;;;;6.25;1.72;;;;;;;25.06;42.58;101086.31;5151564;56;1139018;-63
2022/07/29 11:42:27;;;;;;;6.75;1.25;;;;;;;25.07;42.21;101089.34;5146384;56;1136937;-65
2022/07/29 11:47:36;;;;;;;32.50;3.52;;;;;;;25.05;42.69;101096.34;5151311;56;1137113;-65
2022/07/29 11:52:51;;;;;;;16.97;2.40;;;;;;;25.00;41.45;101090.67;5058374;58;1139510;-66
2022/07/29 11:58:03;;;;;;;5.53;1.67;;;;;;;25.33;41.40;101087.30;5149801;56;1139196;-65
2022/07/29 12:03:09;;;;;;;11.38;2.20;;;;;;;25.65;39.68;101096.11;5066718;57;1137127;-65
2022/07/29 12:08:21;;;;;;;22.48;2.55;;;;;;;25.91;40.33;101090.75;5151275;56;1138963;-63
2022/07/29 12:13:31;;;;;;;19.50;2.55;;;;;;;26.29;40.12;101076.63;5150939;56;1136909;-64
2022/07/29 12:18:36;;;;;;;10.03;1.45;;;;;;;26.60;40.06;101071.92;5151256;56;1141436;-64
2022/07/29 12:23:46;;;;;;;23.83;1.97;;;;;;;26.47;36.40;101071.94;5201617;56;1141046;-66
2022/07/29 12:28:52;;;;;;;15.43;2.10;;;;;;;26.27;36.58;101065.98;5192412;56;1141048;-63
2022/07/29 12:33:58;;;;;;;38.75;3.10;;;;;;;26.36;37.30;101063.91;5202501;56;1141135;-63
2022/07/29 12:39:05;;;;;;;16.65;2.12;;;;;;;26.44;37.55;101060.97;5199604;56;1141078;-62
2022/07/29 12:44:12;;;;;;;12.00;1.62;;;;;;;26.67;36.36;101054.28;5283171;55;1141269;-63
2022/07/29 12:49:24;;;;;;;11.43;1.32;;;;;;;26.75;36.22;101044.03;5169869;56;1141662;-65
2022/07/29 12:54:30;;;;;;;23.02;2.83;;;;;;;26.95;36.60;101036.70;5304671;55;1140900;-63
2022/07/29 12:59:36;;;;;;;19.95;1.77;;;;;;;27.14;36.35;101030.91;5181417;56;1141003;-63
2022/07/29 13:04:42;;;;;;;23.25;2.27;;;;;;;27.40;35.16;101026.38;5302588;55;1141031;-66
2022/07/29 13:09:48;;;;;;;7.22;2.20;;;;;;;27.51;35.19;101021.61;5203156;56;1141093;-63
2022/07/29 13:14:53;;;;;;;11.95;1.72;;;;;;;27.54;32.54;101025.26;5303577;55;1138929;-65
2022/07/29 13:20:14;;;;;;;18.17;1.35;;;;;;;27.44;34.52;101019.47;5184414;56;1141146;-66
2022/07/29 13:25:33;;;;;;;63.17;4.80;;;;;;;27.37;35.19;101007.80;5262408;55;1141433;-62
2022/07/29 13:30:46;;;;;;;3.37;1.75;;;;;;;27.65;33.77;101006.40;5275906;55;1140942;-65
2022/07/29 13:35:48;;;;;;;13.45;2.05;;;;;;;27.58;33.41;101002.08;5299962;55;1138943;-65
2022/07/29 13:40:54;;;;;;;10.20;1.85;;;;;;;27.48;34.28;100994.38;5295449;55;1141278;-63
2022/07/29 13:45:59;;;;;;;141.57;8.23;;;;;;;27.36;33.83;100993.37;5188212;56;1141149;-65
2022/07/29 13:51:05;;;;;;;36.23;3.10;;;;;;;27.62;35.13;100987.84;5190527;56;1143066;-63
2022/07/29 13:56:12;;;;;;;2.70;1.15;;;;;;;27.74;33.38;100984.41;5183355;56;1141164;-62
2022/07/29 14:01:17;;;;;;;57.85;4.10;;;;;;;27.62;33.31;100978.33;5204038;56;1139245;-63
2022/07/29 14:06:23;;;;;;;7.03;1.40;;;;;;;27.74;33.59;100971.65;5274371;55;1141198;-63
2022/07/29 14:11:29;;;;;;;15.75;2.27;;;;;;;27.77;33.19;100971.74;5280015;55;1139254;-64
2022/07/29 14:16:36;;;;;;;15.28;1.45;;;;;;;27.77;34.35;100965.78;5201943;56;1141320;-62
2022/07/29 14:21:42;;;;;;;22.30;2.20;;;;;;;27.87;33.66;100953.04;5291969;55;1141137;-62
2022/07/29 14:26:47;;;;;;;23.73;3.60;;;;;;;27.95;33.12;100959.58;5265985;55;1141264;-63
2022/07/29 14:31:53;;;;;;;15.45;2.15;;;;;;;27.77;33.63;100945.92;5287421;55;1141070;-63
2022/07/29 14:37:00;;;;;;;14.07;1.80;;;;;;;27.51;33.74;100946.37;5256992;55;1140995;-62
2022/07/29 14:42:07;;;;;;;7.72;1.27;;;;;;;27.43;34.05;100952.08;5285195;55;1141042;-65
2022/07/29 14:47:13;;;;;;;8.23;1.17;;;;;;;27.44;34.94;100945.59;5238948;55;1138970;-65
2022/07/29 14:52:19;;;;;;;9.05;1.92;;;;;;;27.56;34.74;100943.00;5256474;55;1139188;-65
2022/07/29 14:57:25;;;;;;;7.87;1.47;;;;;;;27.55;33.78;100950.84;5216833;55;1139073;-64
2022/07/29 15:02:31;;;;;;;5.53;1.35;;;;;;;27.47;32.87;100953.31;5222438;55;1136899;-65
2022/07/29 15:07:37;;;;;;;13.98;2.67;;;;;;;27.31;33.57;100952.48;5234804;56;1137175;-65
2022/07/29 15:12:43;;;;;;;10.23;1.45;;;;;;;27.35;34.11;100944.17;5289313;55;1139165;-64
2022/07/29 15:17:49;;;;;;;22.32;1.67;;;;;;;27.33;33.06;100943.59;5143065;56;1138969;-62
2022/07/29 15:22:56;;;;;;;25.62;2.40;;;;;;;27.49;34.54;100938.16;5192837;56;1139090;-65
2022/07/29 15:28:02;;;;;;;6.50;1.40;;;;;;;27.65;33.53;100934.38;5151173;57;1139011;-66
2022/07/29 15:33:10;;;;;;;9.88;1.92;;;;;;;27.62;32.76;100933.48;5024380;58;1136937;-63
2022/07/29 15:38:17;;;;;;;29.85;3.40;;;;;;;27.59;33.27;100933.09;4931986;58;1136983;-66
2022/07/29 15:43:23;;;;;;;26.40;2.90;;;;;;;27.62;33.85;100933.48;5045903;58;1139008;-63
2022/07/29 15:48:29;;;;;;;18.77;1.77;;;;;;;27.62;32.65;100919.06;5004461;58;1139001;-63
2022/07/29 15:53:35;;;;;;;5.28;1.55;;;;;;;27.63;33.06;100917.48;5010455;58;1139221;-62
2022/07/29 15:58:41;;;;;;;9.08;2.27;;;;;;;27.66;33.60;100920.27;5042857;58;1136938;-66
2022/07/29 16:03:47;;;;;;;9.10;1.85;;;;;;;27.65;33.67;100909.12;5111400;57;1136902;-65
2022/07/29 16:08:54;;;;;;;4.30;1.82;;;;;;;27.65;33.89;100913.20;5062052;58;1137067;-64
2022/07/29 16:14:00;;;;;;;7.45;3.05;;;;;;;27.72;33.60;100908.52;5058138;58;1137237;-64
2022/07/29 16:19:08;;;;;;;6.90;1.57;;;;;;;27.71;34.21;100907.38;5044058;58;1136937;-64
2022/07/29 16:24:14;;;;;;;11.65;1.90;;;;;;;27.63;33.99;100912.05;5125340;57;1134866;-65
2022/07/29 16:29:19;;;;;;;9.55;2.00;;;;;;;27.58;34.17;100915.12;5068477;57;1136987;-64
2022/07/29 16:34:26;;;;;;;23.36;2.32;;;;;;;27.52;33.56;100921.39;5085709;56;1138837;-66
2022/07/29 16:39:32;;;;;;;10.47;1.87;;;;;;;27.49;33.60;100917.78;5067148;58;1140987;-63
2022/07/29 16:44:38;;;;;;;8.78;1.82;;;;;;;27.36;32.92;100915.96;5065741;58;1141298;-65
2022/07/29 16:49:43;;;;;;;10.80;2.17;;;;;;;27.28;33.64;100910.80;4987569;58;1138908;-63
2022/07/29 16:54:49;;;;;;;14.70;1.72;;;;;;;27.17;33.90;100900.65;4987464;58;1141062;-64
2022/07/29 16:59:55;;;;;;;6.22;2.27;;;;;;;27.09;34.20;100899.01;4989064;58;1141304;-62
2022/07/29 17:05:00;;;;;;;8.80;1.27;;;;;;;26.92;33.84;100905.44;5068341;56;1139012;-63
2022/07/29 17:10:07;;;;;;;15.50;1.70;;;;;;;26.80;34.59;100900.39;5068310;56;1138932;-64
2022/07/29 17:15:17;;;;;;;7.53;1.70;;;;;;;26.76;34.93;100895.08;4993595;57;1141071;-63
2022/07/29 17:20:22;;;;;;;27.52;3.40;;;;;;;26.63;34.33;100892.42;5093519;57;1139000;-65
2022/07/29 17:25:27;;;;;;;8.13;1.67;;;;;;;26.49;35.06;100896.23;4990525;58;1141234;-63
2022/07/29 17:30:33;;;;;;;9.83;1.40;;;;;;;26.31;35.16;100884.70;5045729;57;1139038;-63
2022/07/29 17:41:02;;;;;;;4.58;1.60;;;;;;;26.18;35.75;100879.29;5164133;56;1138926;-64
2022/07/29 17:46:08;;;;;;;9.55;1.82;;;;;;;26.10;36.06;100888.50;5085183;57;1139000;-65
2022/07/29 17:51:14;;;;;;;19.50;2.17;;;;;;;25.92;36.23;100895.92;5080220;57;1138886;-64
2022/07/29 17:56:21;;;;;;;16.50;1.75;;;;;;;25.75;36.73;100897.39;5080071;57;1141101;-65
2022/07/29 18:01:28;;;;;;;9.73;2.20;;;;;;;25.59;37.77;100895.06;5075712;57;1141225;-65
2022/07/29 18:06:34;;;;;;;20.40;2.10;;;;;;;25.50;38.05;100906.64;5156082;57;1139052;-65
2022/07/29 18:11:39;;;;;;;24.85;2.12;;;;;;;25.34;39.30;100911.61;5159335;57;1141035;-64
2022/07/29 18:16:45;;;;;;;10.50;2.08;;;;;;;25.22;39.40;100901.88;5159383;57;1141095;-65
2022/07/29 18:21:51;;;;;;;20.80;2.08;;;;;;;25.08;40.19;100900.19;5159390;57;1141092;-64
2022/07/29 18:26:57;;;;;;;31.55;3.25;;;;;;;24.92;41.02;100910.83;5160116;57;1141148;-65
2022/07/29 18:32:02;;;;;;;17.40;2.40;;;;;;;24.77;42.02;100907.45;5282324;55;1141062;-63
2022/07/29 18:37:10;;;;;;;30.35;3.17;;;;;;;24.62;41.78;100910.81;5252159;55;1141152;-64
2022/07/29 18:42:16;;;;;;;49.53;4.17;;;;;;;24.48;42.14;100910.75;5306298;55;1140977;-65
2022/07/29 18:47:22;;;;;;;10.35;2.45;;;;;;;24.40;42.05;100902.82;5232056;56;1141073;-64
2022/07/29 18:52:29;;;;;;;10.30;1.92;;;;;;;24.33;42.22;100914.62;5232121;56;1141141;-64
2022/07/29 18:57:35;;;;;;;8.53;1.65;;;;;;;24.29;42.04;100920.93;5232119;56;1141075;-62
2022/07/29 19:02:41;;;;;;;11.12;2.12;;;;;;;24.25;42.43;100923.73;5282525;55;1139232;-62
2022/07/29 19:07:47;;;;;;;25.70;2.90;;;;;;;24.18;42.63;100923.65;5321113;55;1141069;-63
2022/07/29 19:12:53;;;;;;;7.42;2.20;;;;;;;24.11;42.98;100924.66;5321113;55;1141241;-64
2022/07/29 19:17:58;;;;;;;10.45;2.42;;;;;;;24.02;42.84;100920.41;5321285;55;1139014;-64
2022/07/29 19:23:05;;;;;;;18.70;3.17;;;;;;;23.87;43.08;100927.78;5319096;55;1140515;-63
2022/07/29 19:28:11;;;;;;;18.35;2.40;;;;;;;23.73;43.34;100931.72;5252545;55;1141101;-64
2022/07/29 19:33:17;;;;;;;27.40;2.40;;;;;;;23.60;43.76;100933.47;5235301;55;1141033;-63
2022/07/29 19:38:24;;;;;;;22.58;2.30;;;;;;;23.50;44.00;100934.61;5242617;55;1138996;-65
2022/07/29 19:43:30;;;;;;;11.85;2.27;;;;;;;23.39;44.32;100945.06;5233640;55;1139223;-63
2022/07/29 19:48:36;;;;;;;37.25;3.83;;;;;;;23.29;44.60;100941.86;5220190;55;1139005;-64
2022/07/29 19:53:42;;;;;;;27.50;3.33;;;;;;;23.19;44.88;100944.04;5220015;55;1138967;-62
2022/07/29 19:58:48;;;;;;;44.23;4.28;;;;;;;23.10;45.20;100953.58;5220112;55;1139261;-64
2022/07/29 20:03:54;;;;;;;16.95;2.67;;;;;;;23.03;45.31;100958.08;5292132;55;1139154;-62
2022/07/29 20:08:59;;;;;;;12.00;2.50;;;;;;;22.94;45.63;100948.41;5281180;55;1139205;-63
2022/07/29 20:14:05;;;;;;;12.93;2.60;;;;;;;22.83;45.76;100949.41;5308729;55;1139327;-63
2022/07/29 20:19:11;;;;;;;10.55;2.02;;;;;;;22.61;45.73;100947.95;5219953;56;1139002;-63
2022/07/29 20:24:17;;;;;;;14.63;2.22;;;;;;;22.45;46.02;100942.27;5219886;56;1139025;-63
2022/07/29 20:29:24;;;;;;;27.77;2.22;;;;;;;22.22;46.39;100950.09;5268898;55;1139035;-63
2022/07/29 20:34:30;;;;;;;11.38;2.22;;;;;;;22.05;46.96;100950.76;5247464;55;1139241;-65
2022/07/29 20:39:37;;;;;;;17.35;2.05;;;;;;;21.89;47.56;100950.36;5241699;55;1139249;-65
2022/07/29 20:44:42;;;;;;;13.72;1.77;;;;;;;21.68;48.23;100952.92;5294113;55;1138989;-66
2022/07/29 20:49:48;;;;;;;10.32;1.07;;;;;;;21.51;48.99;100944.12;5321489;55;1139056;-67
2022/07/29 20:54:54;;;;;;;1.47;1.10;;;;;;;21.37;49.50;100942.22;5264926;55;1138998;-66
2022/07/29 21:00:00;;;;;;;4.05;1.10;;;;;;;21.24;49.91;100946.81;5244901;55;1136852;-65
2022/07/29 21:05:06;;;;;;;9.80;1.30;;;;;;;21.21;50.53;100949.05;5331166;55;1136907;-66
2022/07/29 21:10:13;;;;;;;13.10;1.60;;;;;;;21.16;50.54;100952.23;5331320;55;1134813;-64
2022/07/29 21:15:20;;;;;;;2.80;0.88;;;;;;;21.10;50.89;100936.78;5331189;55;1136981;-66
2022/07/29 21:20:26;;;;;;;1.60;1.22;;;;;;;21.00;51.01;100936.18;5331270;55;1138766;-67
2022/07/29 21:25:33;;;;;;;8.80;0.67;;;;;;;20.92;51.33;100951.03;5331525;55;1138949;-65
2022/07/29 21:30:39;;;;;;;9.60;1.40;;;;;;;20.87;51.34;100943.98;5282749;55;1138972;-66
2022/07/29 21:35:45;;;;;;;0.80;0.75;;;;;;;20.78;51.57;100947.20;5207281;56;1138922;-66
2022/07/29 21:40:52;;;;;;;11.88;1.22;;;;;;;20.69;51.89;100949.09;5207268;55;1139285;-65
2022/07/29 21:46:00;;;;;;;8.75;1.25;;;;;;;20.59;52.21;100957.88;5216448;56;1141101;-67
2022/07/29 21:51:06;;;;;;;12.50;1.15;;;;;;;20.55;52.13;100961.91;5217525;56;1138971;-63
2022/07/29 21:56:12;;;;;;;3.15;0.80;;;;;;;20.49;52.04;100951.01;5252448;55;1140998;-65
2022/07/29 22:01:18;;;;;;;2.15;0.93;;;;;;;20.43;52.23;100960.61;5254518;56;1139192;-65
2022/07/29 22:06:23;;;;;;;1.90;0.82;;;;;;;20.35;52.28;100960.59;5295167;55;1139004;-67
2022/07/29 22:11:30;;;;;;;2.47;0.72;;;;;;;20.28;52.35;100960.95;5262572;55;1139551;-65
2022/07/29 22:16:36;;;;;;;5.75;1.02;;;;;;;20.23;52.51;100965.48;5285774;56;1138950;-67
2022/07/29 22:21:43;;;;;;;1.07;0.70;;;;;;;20.19;52.74;100966.83;5275721;56;1139020;-63
2022/07/29 22:26:49;;;;;;;0.50;0.50;;;;;;;20.14;52.82;100962.49;5206827;56;1139297;-64
2022/07/29 22:31:54;;;;;;;4.40;0.75;;;;;;;20.08;52.88;100953.77;5174007;56;1138963;-67
2022/07/29 22:37:01;;;;;;;3.20;1.10;;;;;;;20.01;53.08;100956.81;5131733;57;1139102;-65
2022/07/29 22:42:07;;;;;;;1.47;0.85;;;;;;;19.92;53.83;100948.41;5130252;57;1139424;-63
2022/07/29 22:47:14;;;;;;;1.47;0.70;;;;;;;19.76;53.74;100947.91;5121472;57;1138975;-65
2022/07/29 22:52:20;;;;;;;2.40;0.88;;;;;;;19.63;54.81;100948.42;5121593;57;1138946;-64
2022/07/29 22:57:27;;;;;;;3.40;0.88;;;;;;;19.51;55.41;100948.92;5144285;56;1139525;-67
2022/07/29 23:02:35;;;;;;;2.15;1.00;;;;;;;19.41;55.64;100942.31;5206920;56;1138986;-66
2022/07/29 23:07:40;;;;;;;0.90;0.90;;;;;;;19.39;56.17;100934.97;5206763;56;1138969;-64
2022/07/29 23:12:46;;;;;;;1.60;0.80;;;;;;;19.33;56.46;100935.11;5206788;56;1139492;-66
2022/07/29 23:17:52;;;;;;;7.03;1.07;;;;;;;19.23;57.42;100942.48;5206741;56;1139004;-64
2022/07/29 23:22:57;;;;;;;6.12;1.37;;;;;;;19.17;57.59;100933.74;5206766;56;1139008;-66
2022/07/29 23:28:04;;;;;;;3.98;0.80;;;;;;;19.11;57.89;100930.86;5201430;55;1139366;-64
2022/07/29 23:33:10;;;;;;;3.70;0.98;;;;;;;19.03;58.52;100930.36;5194660;56;1138924;-65
2022/07/29 23:38:15;;;;;;;1.17;0.82;;;;;;;18.94;59.52;100921.97;5219345;56;1138976;-66